createdAt,value
2023-05-14T00:00:07.577Z,11.26
2023-05-14T00:02:35.278Z,11.22
2023-05-14T00:05:03.084Z,11.15
2023-05-14T00:07:31.921Z,11.15
2023-05-14T00:10:00.250Z,11.05
2023-05-14T00:12:28.186Z,11.08
2023-05-14T00:14:57.752Z,11.05
2023-05-14T00:17:25.392Z,11.02
2023-05-14T00:19:53.104Z,10.98
2023-05-14T00:22:20.866Z,10.95
2023-05-14T00:24:48.552Z,10.91
2023-05-14T00:27:16.205Z,10.90
2023-05-14T00:29:45.637Z,10.85
2023-05-14T00:32:14.775Z,10.83
2023-05-14T00:34:42.377Z,10.82
2023-05-14T00:37:10.090Z,10.75
2023-05-14T00:39:37.907Z,10.78
2023-05-14T00:42:05.868Z,10.75
2023-05-14T00:44:37.042Z,10.73
2023-05-14T00:47:06.278Z,10.68
2023-05-14T00:49:35.617Z,10.63
2023-05-14T00:52:03.693Z,10.61
2023-05-14T00:54:31.772Z,10.60
2023-05-14T00:57:00.978Z,10.55
2023-05-14T00:59:31.896Z,10.54
2023-05-14T01:02:00.400Z,10.49
2023-05-14T01:04:39.586Z,10.47
2023-05-14T01:07:13.755Z,10.45
2023-05-14T01:09:50.629Z,10.43
2023-05-14T01:12:22.562Z,10.43
2023-05-14T01:14:58.405Z,10.43
2023-05-14T01:17:29.426Z,10.41
2023-05-14T01:19:59.458Z,10.40
2023-05-14T01:22:28.705Z,10.35
2023-05-14T01:24:57.001Z,10.37
2023-05-14T01:27:30.777Z,10.34
2023-05-14T01:30:08.119Z,10.31
2023-05-14T01:32:37.055Z,10.33
2023-05-14T01:35:07.244Z,10.33
2023-05-14T01:37:39.409Z,10.33
2023-05-14T01:40:09.417Z,10.32
2023-05-14T01:42:37.756Z,10.34
2023-05-14T01:45:06.155Z,10.34
2023-05-14T01:47:34.014Z,10.35
2023-05-14T01:50:02.157Z,10.36
2023-05-14T01:52:30.131Z,10.37
2023-05-14T01:55:00.020Z,10.38
2023-05-14T01:57:28.143Z,10.39
2023-05-14T01:59:55.848Z,10.40
2023-05-14T02:02:23.888Z,10.42
2023-05-14T02:04:51.685Z,10.43
2023-05-14T02:07:19.745Z,10.46
2023-05-14T02:09:47.654Z,10.41
2023-05-14T02:12:17.116Z,10.47
2023-05-14T02:14:45.041Z,10.51
2023-05-14T02:17:15.898Z,10.48
2023-05-14T02:19:43.738Z,10.54
2023-05-14T02:22:16.733Z,10.52
2023-05-14T02:24:44.564Z,10.53
2023-05-14T02:27:15.543Z,10.61
2023-05-14T02:29:44.788Z,10.57
2023-05-14T02:32:12.572Z,10.65
2023-05-14T02:34:40.817Z,10.68
2023-05-14T02:37:09.413Z,10.67
2023-05-14T02:39:37.320Z,10.67
2023-05-14T02:42:05.463Z,10.76
2023-05-14T02:44:33.284Z,10.72
2023-05-14T02:47:03.206Z,10.77
2023-05-14T02:49:31.307Z,10.83
2023-05-14T02:52:00.835Z,10.84
2023-05-14T02:54:28.649Z,10.85
2023-05-14T02:56:56.437Z,10.83
2023-05-14T02:59:25.596Z,10.84
2023-05-14T03:01:53.823Z,10.81
2023-05-14T03:04:25.867Z,10.89
2023-05-14T03:06:53.785Z,10.88
2023-05-14T03:09:21.516Z,10.91
2023-05-14T03:11:49.362Z,10.89
2023-05-14T03:14:17.609Z,10.91
2023-05-14T03:16:46.104Z,10.95
2023-05-14T03:19:13.998Z,10.91
2023-05-14T03:21:43.222Z,10.98
2023-05-14T03:24:11.068Z,10.94
2023-05-14T03:26:39.255Z,10.95
2023-05-14T03:29:09.842Z,11.01
2023-05-14T03:31:37.690Z,11.03
2023-05-14T03:34:05.920Z,11.02
2023-05-14T03:36:34.197Z,11.04
2023-05-14T03:39:03.393Z,11.10
2023-05-14T03:41:31.154Z,11.09
2023-05-14T03:43:58.830Z,11.06
2023-05-14T03:46:26.417Z,11.12
2023-05-14T03:48:54.479Z,11.15
2023-05-14T03:51:22.269Z,11.17
2023-05-14T03:53:49.957Z,11.19
2023-05-14T03:56:18.906Z,11.19
2023-05-14T03:58:47.236Z,11.22
2023-05-14T04:01:16.033Z,11.18
2023-05-14T04:03:43.924Z,11.26
2023-05-14T04:06:11.988Z,11.25
2023-05-14T04:08:39.587Z,11.29
2023-05-14T04:11:07.172Z,11.30
2023-05-14T04:13:36.654Z,11.33
2023-05-14T04:16:04.588Z,11.34
2023-05-14T04:18:35.261Z,11.36
2023-05-14T04:21:02.977Z,11.39
2023-05-14T04:23:31.868Z,11.42
2023-05-14T04:25:59.718Z,11.46
2023-05-14T04:28:27.424Z,11.48
2023-05-14T04:30:56.387Z,11.47
2023-05-14T04:33:24.134Z,11.49
2023-05-14T04:35:52.164Z,11.52
2023-05-14T04:38:19.753Z,11.54
2023-05-14T04:40:47.323Z,11.55
2023-05-14T04:43:16.642Z,11.59
2023-05-14T04:45:46.353Z,11.65
2023-05-14T04:48:15.382Z,11.68
2023-05-14T04:50:44.322Z,11.70
2023-05-14T04:53:18.118Z,11.75
2023-05-14T04:55:49.080Z,11.75
2023-05-14T04:58:17.175Z,11.81
2023-05-14T05:00:45.366Z,11.86
2023-05-14T05:03:13.144Z,11.88
2023-05-14T05:05:42.372Z,11.92
2023-05-14T05:08:11.427Z,11.95
2023-05-14T05:10:39.005Z,12.00
2023-05-14T05:13:06.587Z,12.05
2023-05-14T05:15:35.221Z,12.06
2023-05-14T05:18:03.262Z,12.11
2023-05-14T05:20:31.122Z,12.16
2023-05-14T05:23:00.431Z,12.20
2023-05-14T05:25:32.472Z,12.22
2023-05-14T05:28:00.213Z,12.27
2023-05-14T05:30:28.241Z,12.28
2023-05-14T05:32:57.026Z,12.40
2023-05-14T05:35:25.910Z,12.44
2023-05-14T05:37:54.359Z,12.47
2023-05-14T05:40:23.749Z,12.51
2023-05-14T05:42:51.598Z,12.54
2023-05-14T05:45:19.313Z,12.60
2023-05-14T05:47:47.087Z,12.63
2023-05-14T05:50:15.548Z,12.66
2023-05-14T05:52:44.253Z,12.69
2023-05-14T05:55:12.604Z,12.70
2023-05-14T05:57:41.682Z,12.70
2023-05-14T06:00:14.256Z,12.79
2023-05-14T06:02:42.170Z,12.84
2023-05-14T06:05:12.681Z,12.89
2023-05-14T06:07:42.686Z,12.94
2023-05-14T06:10:11.204Z,12.97
2023-05-14T06:12:39.196Z,13.03
2023-05-14T06:15:09.329Z,13.09
2023-05-14T06:17:37.192Z,13.14
2023-05-14T06:20:08.017Z,13.20
2023-05-14T06:22:35.763Z,13.28
2023-05-14T06:25:03.333Z,13.32
2023-05-14T06:27:31.023Z,13.40
2023-05-14T06:41:58.197Z,13.76
2023-05-14T06:44:25.836Z,13.82
2023-05-14T06:46:54.859Z,13.90
2023-05-14T06:49:22.479Z,13.96
2023-05-14T06:51:50.180Z,14.05
2023-05-14T06:54:17.793Z,14.14
2023-05-14T06:56:46.086Z,14.22
2023-05-14T06:59:13.752Z,14.30
2023-05-14T07:01:41.506Z,14.39
2023-05-14T07:04:10.803Z,14.45
2023-05-14T07:06:38.579Z,14.53
2023-05-14T07:09:06.842Z,14.62
2023-05-14T07:11:34.695Z,14.67
2023-05-14T07:14:02.295Z,14.70
2023-05-14T07:16:29.926Z,14.76
2023-05-14T07:18:57.624Z,14.84
2023-05-14T07:21:26.931Z,14.91
2023-05-14T07:23:54.666Z,15.01
2023-05-14T07:26:24.482Z,15.10
2023-05-14T07:28:52.236Z,15.27
2023-05-14T07:31:20.022Z,15.40
2023-05-14T07:33:47.663Z,15.51
2023-05-14T07:36:15.603Z,15.63
2023-05-14T07:38:44.631Z,15.78
2023-05-14T07:41:12.434Z,15.90
2023-05-14T07:43:40.540Z,16.00
2023-05-14T07:46:08.464Z,16.14
2023-05-14T07:48:36.268Z,16.31
2023-05-14T07:51:03.991Z,16.47
2023-05-14T07:53:31.672Z,16.64
2023-05-14T07:56:00.987Z,16.75
2023-05-14T07:58:28.958Z,16.91
2023-05-14T08:00:57.687Z,17.11
2023-05-14T08:03:25.520Z,17.30
2023-05-14T08:05:53.371Z,17.49
2023-05-14T08:08:21.023Z,17.64
2023-05-14T08:10:48.698Z,17.82
2023-05-14T08:13:17.693Z,17.96
2023-05-14T08:15:45.662Z,18.03
2023-05-14T08:18:13.443Z,18.09
2023-05-14T08:20:41.303Z,18.24
2023-05-14T08:23:09.277Z,18.34
2023-05-14T08:25:36.976Z,18.48
2023-05-14T08:28:06.078Z,18.57
2023-05-14T08:30:35.103Z,18.64
2023-05-14T08:33:03.182Z,18.68
2023-05-14T08:35:31.109Z,18.73
2023-05-14T08:37:58.735Z,18.81
2023-05-14T08:40:27.398Z,18.87
2023-05-14T08:42:57.266Z,18.96
2023-05-14T08:45:31.527Z,19.09
2023-05-14T08:48:02.018Z,19.18
2023-05-14T08:50:31.147Z,19.32
2023-05-14T08:52:58.991Z,19.40
2023-05-14T08:55:29.104Z,19.48
2023-05-14T08:57:56.895Z,19.56
2023-05-14T09:00:27.570Z,19.66
2023-05-14T09:02:56.728Z,19.74
2023-05-14T09:05:25.902Z,19.86
2023-05-14T09:07:53.683Z,20.09
2023-05-14T09:10:22.276Z,20.25
2023-05-14T09:12:50.300Z,20.45
2023-05-14T09:15:18.206Z,20.68
2023-05-14T09:17:48.379Z,20.87
2023-05-14T09:20:16.556Z,21.05
2023-05-14T09:22:45.665Z,21.21
2023-05-14T09:25:13.289Z,21.39
2023-05-14T09:27:40.891Z,21.48
2023-05-14T09:30:11.065Z,21.74
2023-05-14T09:32:40.124Z,22.09
2023-05-14T09:35:20.630Z,22.34
2023-05-14T09:37:51.228Z,22.51
2023-05-14T09:40:20.740Z,22.58
2023-05-14T09:42:49.161Z,22.82
2023-05-14T09:45:17.328Z,22.91
2023-05-14T09:47:45.808Z,22.96
2023-05-14T09:50:13.852Z,23.23
2023-05-14T09:52:41.650Z,23.49
2023-05-14T09:55:11.182Z,23.75
2023-05-14T09:57:39.202Z,23.94
2023-05-14T10:00:09.489Z,24.06
2023-05-14T10:02:40.557Z,24.28
2023-05-14T10:05:09.633Z,24.46
2023-05-14T10:07:42.879Z,24.62
2023-05-14T10:10:17.150Z,24.66
2023-05-14T10:12:50.819Z,24.50
2023-05-14T10:15:21.761Z,24.38
2023-05-14T10:17:54.684Z,24.36
2023-05-14T10:20:24.677Z,24.36
2023-05-14T10:22:52.959Z,24.51
2023-05-14T10:25:22.651Z,24.53
2023-05-14T10:27:50.493Z,24.56
2023-05-14T10:30:22.943Z,24.70
2023-05-14T10:32:50.808Z,24.60
2023-05-14T10:35:20.610Z,24.52
2023-05-14T10:37:51.716Z,24.53
2023-05-14T10:40:19.650Z,24.48
2023-05-14T10:42:49.493Z,24.34
2023-05-14T10:45:17.622Z,24.22
2023-05-14T10:47:47.739Z,24.35
2023-05-14T10:50:17.446Z,24.55
2023-05-14T10:52:46.673Z,24.49
2023-05-14T10:55:16.215Z,24.27
2023-05-14T10:57:46.057Z,24.20
2023-05-14T11:00:16.221Z,24.12
2023-05-14T11:02:45.140Z,23.93
2023-05-14T11:05:16.069Z,23.72
2023-05-14T11:07:45.950Z,23.59
2023-05-14T11:10:15.678Z,23.47
2023-05-14T11:12:45.037Z,23.39
2023-05-14T11:15:17.078Z,23.28
2023-05-14T11:17:46.125Z,23.19
2023-05-14T11:20:14.782Z,23.09
2023-05-14T11:22:44.076Z,23.00
2023-05-14T11:25:14.704Z,22.92
2023-05-14T11:27:45.451Z,22.84
2023-05-14T11:30:15.905Z,22.79
2023-05-14T11:32:45.837Z,22.72
2023-05-14T11:35:13.940Z,22.62
2023-05-14T11:37:41.909Z,22.51
2023-05-14T11:40:16.230Z,22.39
2023-05-14T11:42:43.999Z,22.24
2023-05-14T11:45:13.068Z,22.16
2023-05-14T11:47:43.386Z,22.23
2023-05-14T11:50:11.757Z,22.57
2023-05-14T11:52:41.407Z,22.90
2023-05-14T11:55:12.906Z,23.25
2023-05-14T11:57:41.891Z,23.30
2023-05-14T12:00:13.463Z,23.51
2023-05-14T12:02:41.497Z,23.74
2023-05-14T12:05:14.048Z,23.74
2023-05-14T12:07:41.970Z,23.75
2023-05-14T12:10:12.813Z,23.73
2023-05-14T12:12:40.449Z,23.65
2023-05-14T12:15:12.692Z,23.66
2023-05-14T12:17:40.649Z,23.72
2023-05-14T12:20:12.500Z,23.78
2023-05-14T12:22:42.376Z,23.78
2023-05-14T12:25:13.494Z,23.79
2023-05-14T12:27:41.687Z,23.76
2023-05-14T12:32:41.711Z,23.57
2023-05-14T12:35:11.407Z,23.53
2023-05-14T12:37:39.946Z,23.53
2023-05-14T12:40:09.658Z,23.47
2023-05-14T12:42:37.558Z,23.36
2023-05-14T12:45:08.440Z,23.29
2023-05-14T12:47:36.780Z,23.31
2023-05-14T12:50:05.033Z,23.31
2023-05-14T12:52:38.742Z,23.32
2023-05-14T12:55:07.999Z,23.32
2023-05-14T12:57:35.962Z,23.29
2023-05-14T13:00:06.993Z,23.31
2023-05-14T13:02:42.873Z,23.27
2023-05-14T13:05:12.002Z,23.28
2023-05-14T13:07:41.096Z,23.27
2023-05-14T13:10:09.916Z,23.27
2023-05-14T13:12:38.665Z,23.31
2023-05-14T13:15:07.227Z,23.29
2023-05-14T13:17:34.912Z,23.31
2023-05-14T13:20:02.532Z,23.32
2023-05-14T13:22:30.703Z,23.37
2023-05-14T13:24:59.870Z,23.43
2023-05-14T13:27:27.820Z,23.41
2023-05-14T13:29:55.526Z,23.34
2023-05-14T13:32:23.504Z,23.25
2023-05-14T13:34:51.206Z,23.19
2023-05-14T13:37:18.832Z,23.10
2023-05-14T13:39:46.397Z,23.07
2023-05-14T13:42:15.344Z,23.06
2023-05-14T13:44:42.917Z,23.05
2023-05-14T13:47:11.520Z,23.03
2023-05-14T13:49:40.354Z,23.05
2023-05-14T13:52:08.139Z,23.09
2023-05-14T13:54:35.798Z,23.07
2023-05-14T13:57:03.407Z,23.00
2023-05-14T13:59:32.370Z,22.95
2023-05-14T14:02:00.085Z,23.11
2023-05-14T14:04:29.028Z,23.33
2023-05-14T14:06:56.737Z,23.73
2023-05-14T14:09:24.653Z,24.14
2023-05-14T14:11:52.765Z,24.55
2023-05-14T14:14:20.518Z,24.73
2023-05-14T14:16:49.443Z,24.94
2023-05-14T14:19:18.515Z,25.15
2023-05-14T14:21:46.435Z,25.36
2023-05-14T14:24:14.102Z,25.45
2023-05-14T14:26:41.763Z,25.54
2023-05-14T14:29:09.430Z,25.60
2023-05-14T14:31:37.246Z,25.56
2023-05-14T14:34:06.355Z,25.58
2023-05-14T14:36:33.991Z,25.80
2023-05-14T14:39:01.678Z,25.92
2023-05-14T14:41:29.339Z,26.04
2023-05-14T14:43:57.455Z,26.18
2023-05-14T14:46:25.140Z,26.35
2023-05-14T14:48:52.818Z,26.53
2023-05-14T14:51:21.814Z,26.63
2023-05-14T14:53:49.447Z,26.73
2023-05-14T14:56:17.152Z,26.73
2023-05-14T14:58:45.400Z,26.43
2023-05-14T15:01:13.116Z,26.16
2023-05-14T15:03:41.117Z,25.93
2023-05-14T15:06:09.189Z,25.75
2023-05-14T15:08:38.245Z,25.61
2023-05-14T15:11:07.213Z,25.53
2023-05-14T15:13:35.205Z,25.43
2023-05-14T15:16:03.039Z,25.23
2023-05-14T15:18:30.663Z,25.02
2023-05-14T15:20:58.371Z,24.83
2023-05-14T15:23:26.010Z,24.62
2023-05-14T15:25:55.046Z,24.50
2023-05-14T15:28:22.660Z,24.37
2023-05-14T15:30:50.315Z,24.20
2023-05-14T15:33:19.338Z,24.07
2023-05-14T15:35:47.448Z,23.95
2023-05-14T15:38:15.253Z,23.89
2023-05-14T15:40:42.931Z,23.77
2023-05-14T15:43:12.586Z,23.78
2023-05-14T15:45:40.215Z,23.77
2023-05-14T15:48:07.938Z,23.79
2023-05-14T15:50:35.615Z,23.71
2023-05-14T15:53:03.286Z,23.69
2023-05-14T15:55:30.956Z,23.64
2023-05-14T15:57:58.594Z,23.56
2023-05-14T16:00:27.681Z,23.45
2023-05-14T16:02:55.394Z,23.36
2023-05-14T16:05:23.077Z,23.24
2023-05-14T16:07:50.906Z,23.15
2023-05-14T16:10:19.408Z,23.02
2023-05-14T16:12:47.024Z,22.84
2023-05-14T16:15:15.004Z,22.76
2023-05-14T16:17:44.144Z,22.67
2023-05-14T16:20:13.244Z,22.60
2023-05-14T16:22:40.920Z,22.55
2023-05-14T16:25:09.134Z,22.46
2023-05-14T16:27:36.911Z,22.37
2023-05-14T16:30:05.384Z,22.30
2023-05-14T16:32:33.768Z,22.19
2023-05-14T16:35:02.972Z,22.15
2023-05-14T16:37:30.682Z,22.09
2023-05-14T16:39:58.315Z,22.01
2023-05-14T16:42:26.245Z,21.92
2023-05-14T16:44:54.117Z,21.84
2023-05-14T16:47:21.800Z,21.78
2023-05-14T16:49:49.519Z,21.70
2023-05-14T16:52:18.611Z,21.60
2023-05-14T16:54:46.372Z,21.53
2023-05-14T16:57:14.043Z,21.52
2023-05-14T16:59:41.647Z,21.49
2023-05-14T17:02:09.957Z,21.48
2023-05-14T17:04:38.828Z,21.45
2023-05-14T17:07:06.747Z,21.41
2023-05-14T17:09:35.866Z,21.37
2023-05-14T17:12:04.081Z,21.34
2023-05-14T17:14:31.956Z,21.29
2023-05-14T17:16:59.617Z,21.24
2023-05-14T17:19:27.272Z,21.19
2023-05-14T17:21:54.881Z,21.14
2023-05-14T17:24:22.489Z,21.09
2023-05-14T17:26:51.537Z,21.03
2023-05-14T17:29:19.195Z,20.95
2023-05-14T17:31:48.275Z,20.89
2023-05-14T17:34:17.695Z,20.82
2023-05-14T17:36:45.416Z,20.74
2023-05-14T17:39:13.012Z,20.67
2023-05-14T17:41:42.039Z,20.62
2023-05-14T17:44:12.931Z,20.58
2023-05-14T17:46:41.832Z,20.51
2023-05-14T17:49:09.558Z,20.46
2023-05-14T17:51:37.157Z,20.39
2023-05-14T17:54:05.088Z,20.34
2023-05-14T17:56:32.935Z,20.27
2023-05-14T17:59:01.354Z,20.21
2023-05-14T18:01:30.753Z,20.14
2023-05-14T18:03:58.587Z,20.09
2023-05-14T18:06:26.312Z,20.03
2023-05-14T18:08:53.970Z,19.96
2023-05-14T18:11:21.646Z,19.91
2023-05-14T18:13:49.310Z,19.84
2023-05-14T18:16:17.017Z,19.79
2023-05-14T18:18:46.103Z,19.75
2023-05-14T18:21:13.791Z,19.69
2023-05-14T18:23:41.412Z,19.64
2023-05-14T18:26:09.091Z,19.58
2023-05-14T18:28:37.910Z,19.53
2023-05-14T18:31:05.767Z,19.46
2023-05-14T18:33:33.679Z,19.39
2023-05-14T18:36:02.735Z,19.34
2023-05-14T18:38:30.342Z,19.28
2023-05-14T18:40:57.973Z,19.22
2023-05-14T18:43:26.217Z,19.15
2023-05-14T18:45:54.779Z,19.11
2023-05-14T18:48:23.032Z,19.03
2023-05-14T18:50:51.120Z,18.99
2023-05-14T18:53:20.071Z,18.91
2023-05-14T18:55:47.762Z,18.86
2023-05-14T18:58:15.454Z,18.80
2023-05-14T19:00:43.338Z,18.75
2023-05-14T19:03:11.111Z,18.68
2023-05-14T19:05:39.688Z,18.62
2023-05-14T19:08:07.585Z,18.55
2023-05-14T19:10:36.634Z,18.50
2023-05-14T19:13:04.380Z,18.45
2023-05-14T19:15:32.385Z,18.38
2023-05-14T19:18:00.134Z,18.33
2023-05-14T19:20:28.137Z,18.27
2023-05-14T19:22:55.820Z,18.22
2023-05-14T19:25:23.852Z,18.17
2023-05-14T19:27:55.233Z,18.13
2023-05-14T19:30:23.446Z,18.11
2023-05-14T19:32:51.456Z,18.07
2023-05-14T19:35:19.165Z,18.01
2023-05-14T19:37:47.355Z,17.93
2023-05-14T19:40:15.156Z,17.86
2023-05-14T19:42:42.851Z,17.79
2023-05-14T19:45:12.682Z,17.71
2023-05-14T19:47:40.564Z,17.60
2023-05-14T19:50:09.102Z,17.50
2023-05-14T19:52:36.873Z,17.36
2023-05-14T19:55:04.894Z,17.28
2023-05-14T19:57:32.604Z,17.19
2023-05-14T20:00:00.403Z,17.08
2023-05-14T20:02:29.644Z,16.98
2023-05-14T20:04:57.950Z,16.86
2023-05-14T20:07:25.961Z,16.75
2023-05-14T20:09:53.877Z,16.67
2023-05-14T20:12:21.774Z,16.62
2023-05-14T20:14:49.655Z,16.57
2023-05-14T20:17:17.876Z,16.56
2023-05-14T20:19:46.938Z,16.54
2023-05-14T20:22:15.058Z,16.51
2023-05-14T20:24:42.919Z,16.50
2023-05-14T20:27:10.677Z,16.50
2023-05-14T20:29:38.492Z,16.50
2023-05-14T20:32:07.154Z,16.49
2023-05-14T20:34:34.870Z,16.47
2023-05-14T20:37:05.140Z,16.44
2023-05-14T20:39:32.887Z,16.40
2023-05-14T20:42:00.753Z,16.38
2023-05-14T20:44:28.468Z,16.36
2023-05-14T20:46:56.220Z,16.35
2023-05-14T20:49:23.891Z,16.32
2023-05-14T20:51:51.765Z,16.30
2023-05-14T20:54:20.884Z,16.28
2023-05-14T20:56:48.666Z,16.26
2023-05-14T20:59:16.428Z,16.24
2023-05-14T21:01:44.267Z,16.22
2023-05-14T21:04:12.390Z,16.21
2023-05-14T21:06:40.131Z,16.18
2023-05-14T21:09:07.820Z,16.16
2023-05-14T21:11:36.893Z,16.14
2023-05-14T21:14:05.863Z,16.15
2023-05-14T21:16:34.050Z,16.14
2023-05-14T21:19:02.322Z,16.12
2023-05-14T21:21:30.104Z,16.10
2023-05-14T21:23:57.790Z,16.08
2023-05-14T21:26:26.907Z,16.06
2023-05-14T21:28:55.987Z,16.01
2023-05-14T21:31:23.773Z,16.01
2023-05-14T21:33:51.529Z,15.99
2023-05-14T21:36:20.459Z,15.97
2023-05-14T21:38:48.128Z,15.94
2023-05-14T21:41:16.385Z,15.89
2023-05-14T21:43:45.191Z,15.85
2023-05-14T21:46:14.463Z,15.84
2023-05-14T21:48:42.318Z,15.80
2023-05-14T21:51:10.384Z,15.78
2023-05-14T21:53:38.209Z,15.75
2023-05-14T21:56:08.184Z,15.71
2023-05-14T21:58:36.532Z,15.69
2023-05-14T22:01:04.334Z,15.66
2023-05-14T22:03:33.501Z,15.64
2023-05-14T22:06:01.659Z,15.61
2023-05-14T22:08:30.719Z,15.58
2023-05-14T22:10:59.152Z,15.55
2023-05-14T22:13:27.048Z,15.51
2023-05-14T22:16:01.471Z,15.48
2023-05-14T22:18:38.943Z,15.44
2023-05-14T22:21:07.238Z,15.41
2023-05-14T22:23:35.175Z,15.34
2023-05-14T22:26:03.157Z,15.24
2023-05-14T22:28:31.276Z,15.20
2023-05-14T22:30:59.725Z,15.16
2023-05-14T22:33:27.797Z,15.12
2023-05-14T22:35:57.192Z,15.09
2023-05-14T22:38:25.226Z,15.06
2023-05-14T22:40:53.083Z,15.02
2023-05-14T22:43:20.952Z,14.98
2023-05-14T22:45:48.750Z,14.96
2023-05-14T22:48:16.684Z,14.94
2023-05-14T22:50:44.437Z,14.91
2023-05-14T22:53:13.812Z,14.87
2023-05-14T22:55:41.536Z,14.84
2023-05-14T22:58:09.302Z,14.80
2023-05-14T23:00:37.358Z,14.75
2023-05-14T23:03:05.195Z,14.69
2023-05-14T23:05:33.299Z,14.64
2023-05-14T23:08:01.119Z,14.58
2023-05-14T23:10:30.382Z,14.54
2023-05-14T23:12:58.230Z,14.48
2023-05-14T23:15:26.412Z,14.44
2023-05-14T23:17:54.387Z,14.37
2023-05-14T23:20:22.207Z,14.31
2023-05-14T23:22:50.003Z,14.24
2023-05-14T23:25:17.724Z,14.17
2023-05-14T23:27:47.067Z,14.09
2023-05-14T23:30:15.102Z,14.02
2023-05-14T23:32:43.006Z,13.95
2023-05-14T23:35:11.501Z,13.90
2023-05-14T23:37:42.965Z,13.83
2023-05-14T23:40:11.165Z,13.67
2023-05-14T23:42:38.898Z,13.50
2023-05-14T23:45:09.369Z,13.43
2023-05-14T23:47:37.213Z,13.34
2023-05-14T23:50:05.494Z,13.31
2023-05-14T23:52:34.448Z,13.26
2023-05-14T23:55:02.154Z,13.22
2023-05-14T23:57:29.918Z,13.18
2023-05-14T23:59:57.573Z,13.15
